sensor_id;sensor_type;location;lat;lon;timestamp;pressure;altitude;pressure_sealevel;temperature;humidity
14232;BME280;7200;52.194;9.900;2023-06-04T00:01:53;100618.47;;;12.60;100.00
14232;BME280;7200;52.194;9.900;2023-06-04T00:04:19;100696.81;;;12.86;100.00
14232;BME280;7200;52.194;9.900;2023-06-04T00:06:44;100789.94;;;13.18;100.00
14232;BME280;7200;52.194;9.900;2023-06-04T00:09:10;100609.09;;;12.53;100.00
14232;BME280;7200;52.194;9.900;2023-06-04T00:11:35;100615.06;;;12.36;100.00
14232;BME280;7200;52.194;9.900;2023-06-04T00:14:01;100768.75;;;12.75;100.00
14232;BME280;7200;52.194;9.900;2023-06-04T00:16:27;100827.56;;;13.05;100.00
14232;BME280;7200;52.194;9.900;2023-06-04T00:18:52;100771.78;;;13.09;100.00
14232;BME280;7200;52.194;9.900;2023-06-04T00:21:17;100708.50;;;12.80;100.00
14232;BME280;7200;52.194;9.900;2023-06-04T00:23:43;100686.69;;;12.53;100.00
14232;BME280;7200;52.194;9.900;2023-06-04T00:26:08;100788.09;;;12.77;100.00
14232;BME280;7200;52.194;9.900;2023-06-04T00:28:33;100770.56;;;12.73;100.00
14232;BME280;7200;52.194;9.900;2023-06-04T00:30:59;100767.38;;;12.65;100.00
14232;BME280;7200;52.194;9.900;2023-06-04T00:33:24;100701.56;;;12.56;100.00
14232;BME280;7200;52.194;9.900;2023-06-04T00:35:49;100636.13;;;12.17;100.00
14232;BME280;7200;52.194;9.900;2023-06-04T00:38:15;100699.41;;;12.21;100.00
14232;BME280;7200;52.194;9.900;2023-06-04T00:40:40;100710.97;;;12.19;100.00
14232;BME280;7200;52.194;9.900;2023-06-04T00:43:05;100766.91;;;12.32;100.00
14232;BME280;7200;52.194;9.900;2023-06-04T00:45:31;100767.78;;;12.32;100.00
14232;BME280;7200;52.194;9.900;2023-06-04T00:47:57;100849.91;;;12.53;100.00
14232;BME280;7200;52.194;9.900;2023-06-04T00:50:22;100788.47;;;12.44;100.00
14232;BME280;7200;52.194;9.900;2023-06-04T00:52:49;100838.84;;;12.65;100.00
14232;BME280;7200;52.194;9.900;2023-06-04T00:55:15;100841.16;;;12.74;100.00
14232;BME280;7200;52.194;9.900;2023-06-04T00:57:43;100781.78;;;12.58;100.00
14232;BME280;7200;52.194;9.900;2023-06-04T01:00:08;100823.03;;;12.63;100.00
14232;BME280;7200;52.194;9.900;2023-06-04T01:02:37;100762.34;;;12.59;100.00
14232;BME280;7200;52.194;9.900;2023-06-04T01:07:35;100781.38;;;12.45;100.00
14232;BME280;7200;52.194;9.900;2023-06-04T01:10:00;100836.59;;;12.54;100.00
14232;BME280;7200;52.194;9.900;2023-06-04T01:12:26;100753.16;;;12.22;100.00
14232;BME280;7200;52.194;9.900;2023-06-04T01:14:51;100827.75;;;12.32;100.00
14232;BME280;7200;52.194;9.900;2023-06-04T01:17:32;100799.19;;;12.18;100.00
14232;BME280;7200;52.194;9.900;2023-06-04T01:25:40;100774.25;;;11.75;100.00
14232;BME280;7200;52.194;9.900;2023-06-04T01:28:08;100891.19;;;12.10;100.00
14232;BME280;7200;52.194;9.900;2023-06-04T01:30:35;100832.00;;;12.12;100.00
14232;BME280;7200;52.194;9.900;2023-06-04T01:33:02;100862.28;;;12.29;100.00
14232;BME280;7200;52.194;9.900;2023-06-04T01:35:28;100796.13;;;12.05;100.00
14232;BME280;7200;52.194;9.900;2023-06-04T01:37:56;100801.59;;;12.00;100.00
14232;BME280;7200;52.194;9.900;2023-06-04T01:40:22;100839.09;;;12.12;100.00
14232;BME280;7200;52.194;9.900;2023-06-04T01:42:48;100851.31;;;12.14;100.00
14232;BME280;7200;52.194;9.900;2023-06-04T01:45:13;100847.78;;;12.15;100.00
14232;BME280;7200;52.194;9.900;2023-06-04T01:47:39;100841.59;;;12.15;100.00
14232;BME280;7200;52.194;9.900;2023-06-04T01:50:05;100826.19;;;12.02;100.00
14232;BME280;7200;52.194;9.900;2023-06-04T01:52:35;100854.63;;;12.21;100.00
14232;BME280;7200;52.194;9.900;2023-06-04T01:55:01;100837.06;;;12.18;100.00
14232;BME280;7200;52.194;9.900;2023-06-04T01:57:27;100793.47;;;12.05;100.00
14232;BME280;7200;52.194;9.900;2023-06-04T01:59:52;100842.59;;;12.12;100.00
14232;BME280;7200;52.194;9.900;2023-06-04T02:02:17;100835.97;;;12.24;100.00
14232;BME280;7200;52.194;9.900;2023-06-04T02:04:43;100825.91;;;12.10;100.00
14232;BME280;7200;52.194;9.900;2023-06-04T02:07:10;100789.75;;;11.85;100.00
14232;BME280;7200;52.194;9.900;2023-06-04T02:09:36;100805.28;;;11.69;100.00
14232;BME280;7200;52.194;9.900;2023-06-04T02:12:02;100883.25;;;11.83;100.00
14232;BME280;7200;52.194;9.900;2023-06-04T02:14:28;100818.16;;;11.54;100.00
14232;BME280;7200;52.194;9.900;2023-06-04T02:16:53;100858.31;;;11.65;100.00
14232;BME280;7200;52.194;9.900;2023-06-04T02:19:19;100845.34;;;11.57;100.00
14232;BME280;7200;52.194;9.900;2023-06-04T02:21:45;100852.72;;;11.47;100.00
14232;BME280;7200;52.194;9.900;2023-06-04T02:24:10;100899.84;;;11.61;100.00
14232;BME280;7200;52.194;9.900;2023-06-04T02:26:35;100848.53;;;11.42;100.00
14232;BME280;7200;52.194;9.900;2023-06-04T02:29:00;100856.63;;;11.36;100.00
14232;BME280;7200;52.194;9.900;2023-06-04T02:31:26;100878.69;;;11.35;100.00
14232;BME280;7200;52.194;9.900;2023-06-04T02:33:51;100886.41;;;11.41;100.00
14232;BME280;7200;52.194;9.900;2023-06-04T02:36:16;100888.97;;;11.44;100.00
14232;BME280;7200;52.194;9.900;2023-06-04T02:38:42;100893.56;;;11.37;100.00
14232;BME280;7200;52.194;9.900;2023-06-04T02:41:07;100890.06;;;11.37;100.00
14232;BME280;7200;52.194;9.900;2023-06-04T02:43:33;100904.38;;;11.29;100.00
14232;BME280;7200;52.194;9.900;2023-06-04T02:45:58;100862.81;;;11.08;100.00
14232;BME280;7200;52.194;9.900;2023-06-04T02:48:23;100863.31;;;10.93;100.00
14232;BME280;7200;52.194;9.900;2023-06-04T02:50:49;100940.75;;;11.21;100.00
14232;BME280;7200;52.194;9.900;2023-06-04T02:53:14;100937.00;;;11.28;100.00
14232;BME280;7200;52.194;9.900;2023-06-04T02:55:39;100954.38;;;11.36;100.00
14232;BME280;7200;52.194;9.900;2023-06-04T02:58:07;100878.63;;;11.09;100.00
14232;BME280;7200;52.194;9.900;2023-06-04T03:00:34;100874.47;;;11.01;100.00
14232;BME280;7200;52.194;9.900;2023-06-04T03:03:00;100857.53;;;10.80;100.00
14232;BME280;7200;52.194;9.900;2023-06-04T03:05:27;100943.16;;;10.99;100.00
14232;BME280;7200;52.194;9.900;2023-06-04T03:07:52;100910.97;;;10.86;100.00
14232;BME280;7200;52.194;9.900;2023-06-04T03:10:18;100891.16;;;10.73;100.00
14232;BME280;7200;52.194;9.900;2023-06-04T03:12:44;100939.78;;;10.94;100.00
14232;BME280;7200;52.194;9.900;2023-06-04T03:15:10;100936.03;;;11.03;100.00
14232;BME280;7200;52.194;9.900;2023-06-04T03:17:36;100914.41;;;10.90;100.00
14232;BME280;7200;52.194;9.900;2023-06-04T03:20:01;100851.16;;;10.57;100.00
14232;BME280;7200;52.194;9.900;2023-06-04T03:22:28;100875.50;;;10.67;100.00
14232;BME280;7200;52.194;9.900;2023-06-04T03:24:54;100872.16;;;10.60;100.00
14232;BME280;7200;52.194;9.900;2023-06-04T03:27:19;100883.50;;;10.64;100.00
14232;BME280;7200;52.194;9.900;2023-06-04T03:29:45;100951.47;;;10.87;100.00
14232;BME280;7200;52.194;9.900;2023-06-04T03:32:11;100986.94;;;11.08;100.00
14232;BME280;7200;52.194;9.900;2023-06-04T03:34:37;100984.84;;;11.19;100.00
14232;BME280;7200;52.194;9.900;2023-06-04T03:37:03;100902.31;;;11.11;100.00
14232;BME280;7200;52.194;9.900;2023-06-04T03:39:28;100884.34;;;11.22;100.00
14232;BME280;7200;52.194;9.900;2023-06-04T03:41:53;100881.47;;;11.30;100.00
14232;BME280;7200;52.194;9.900;2023-06-04T03:44:20;100850.09;;;11.21;100.00
14232;BME280;7200;52.194;9.900;2023-06-04T03:46:45;100838.84;;;11.14;100.00
14232;BME280;7200;52.194;9.900;2023-06-04T03:49:11;100897.47;;;11.25;100.00
14232;BME280;7200;52.194;9.900;2023-06-04T03:51:37;100907.19;;;11.25;100.00
14232;BME280;7200;52.194;9.900;2023-06-04T03:54:03;100947.50;;;11.30;100.00
14232;BME280;7200;52.194;9.900;2023-06-04T03:56:28;100952.78;;;11.30;100.00
14232;BME280;7200;52.194;9.900;2023-06-04T03:58:54;100985.91;;;11.42;100.00
14232;BME280;7200;52.194;9.900;2023-06-04T04:01:20;100991.06;;;11.45;100.00
14232;BME280;7200;52.194;9.900;2023-06-04T04:03:45;100983.16;;;11.45;100.00
14232;BME280;7200;52.194;9.900;2023-06-04T04:06:13;100987.44;;;11.49;100.00
14232;BME280;7200;52.194;9.900;2023-06-04T04:08:39;101010.09;;;11.56;100.00
14232;BME280;7200;52.194;9.900;2023-06-04T04:11:08;101005.78;;;11.54;100.00
14232;BME280;7200;52.194;9.900;2023-06-04T04:13:33;100995.47;;;11.46;100.00
14232;BME280;7200;52.194;9.900;2023-06-04T04:15:58;101003.19;;;11.52;100.00
14232;BME280;7200;52.194;9.900;2023-06-04T04:18:24;100995.50;;;11.44;100.00
14232;BME280;7200;52.194;9.900;2023-06-04T04:20:50;101021.59;;;11.55;100.00
14232;BME280;7200;52.194;9.900;2023-06-04T04:23:15;101006.63;;;11.54;100.00
14232;BME280;7200;52.194;9.900;2023-06-04T04:25:42;101003.19;;;11.52;100.00
14232;BME280;7200;52.194;9.900;2023-06-04T04:28:09;101055.97;;;11.83;100.00
14232;BME280;7200;52.194;9.900;2023-06-04T04:30:34;101032.59;;;11.98;100.00
14232;BME280;7200;52.194;9.900;2023-06-04T04:33:00;101028.72;;;12.10;100.00
14232;BME280;7200;52.194;9.900;2023-06-04T04:35:25;100986.56;;;12.03;100.00
14232;BME280;7200;52.194;9.900;2023-06-04T04:37:51;101032.47;;;12.29;100.00
14232;BME280;7200;52.194;9.900;2023-06-04T04:40:16;100995.63;;;12.23;100.00
14232;BME280;7200;52.194;9.900;2023-06-04T04:42:42;100968.56;;;12.15;100.00
14232;BME280;7200;52.194;9.900;2023-06-04T04:45:07;101001.41;;;12.34;100.00
14232;BME280;7200;52.194;9.900;2023-06-04T04:47:33;101014.91;;;12.52;100.00
14232;BME280;7200;52.194;9.900;2023-06-04T04:49:58;100994.50;;;12.55;100.00
14232;BME280;7200;52.194;9.900;2023-06-04T04:52:23;100982.34;;;12.50;100.00
14232;BME280;7200;52.194;9.900;2023-06-04T04:54:49;100933.50;;;12.10;100.00
14232;BME280;7200;52.194;9.900;2023-06-04T04:57:14;100988.72;;;12.19;100.00
14232;BME280;7200;52.194;9.900;2023-06-04T04:59:39;101049.00;;;12.36;100.00
14232;BME280;7200;52.194;9.900;2023-06-04T05:02:05;101028.50;;;12.41;100.00
14232;BME280;7200;52.194;9.900;2023-06-04T05:04:30;101024.91;;;12.43;100.00
14232;BME280;7200;52.194;9.900;2023-06-04T05:06:55;101041.66;;;12.69;100.00
14232;BME280;7200;52.194;9.900;2023-06-04T05:09:20;101032.28;;;12.84;100.00
14232;BME280;7200;52.194;9.900;2023-06-04T05:11:46;101058.81;;;13.08;100.00
14232;BME280;7200;52.194;9.900;2023-06-04T05:14:11;101093.28;;;13.31;100.00
14232;BME280;7200;52.194;9.900;2023-06-04T05:16:37;100980.19;;;13.08;100.00
14232;BME280;7200;52.194;9.900;2023-06-04T05:19:03;101043.44;;;13.41;100.00
14232;BME280;7200;52.194;9.900;2023-06-04T05:21:28;101025.94;;;13.60;100.00
14232;BME280;7200;52.194;9.900;2023-06-04T05:23:54;100985.66;;;13.51;100.00
14232;BME280;7200;52.194;9.900;2023-06-04T05:26:20;100951.78;;;13.35;100.00
14232;BME280;7200;52.194;9.900;2023-06-04T05:28:50;100956.22;;;13.35;100.00
14232;BME280;7200;52.194;9.900;2023-06-04T05:31:16;100985.72;;;13.49;100.00
14232;BME280;7200;52.194;9.900;2023-06-04T05:33:43;101034.72;;;13.61;100.00
14232;BME280;7200;52.194;9.900;2023-06-04T05:36:08;100998.69;;;13.79;100.00
14232;BME280;7200;52.194;9.900;2023-06-04T05:38:33;100952.69;;;13.78;100.00
14232;BME280;7200;52.194;9.900;2023-06-04T05:41:01;101000.91;;;14.10;100.00
14232;BME280;7200;52.194;9.900;2023-06-04T05:43:26;100964.28;;;13.98;100.00
14232;BME280;7200;52.194;9.900;2023-06-04T05:45:51;100878.75;;;13.50;100.00
14232;BME280;7200;52.194;9.900;2023-06-04T05:48:16;100909.03;;;13.44;100.00
14232;BME280;7200;52.194;9.900;2023-06-04T05:50:42;100906.47;;;13.43;100.00
14232;BME280;7200;52.194;9.900;2023-06-04T05:53:07;100901.81;;;13.48;100.00
14232;BME280;7200;52.194;9.900;2023-06-04T05:55:33;100931.97;;;13.68;100.00
14232;BME280;7200;52.194;9.900;2023-06-04T05:57:58;100911.06;;;13.60;100.00
14232;BME280;7200;52.194;9.900;2023-06-04T06:00:23;100907.88;;;13.72;100.00
14232;BME280;7200;52.194;9.900;2023-06-04T06:02:50;100957.09;;;13.79;100.00
14232;BME280;7200;52.194;9.900;2023-06-04T06:05:17;100917.16;;;13.62;100.00
14232;BME280;7200;52.194;9.900;2023-06-04T06:07:42;101020.53;;;13.84;100.00
14232;BME280;7200;52.194;9.900;2023-06-04T06:10:08;101108.94;;;14.29;100.00
14232;BME280;7200;52.194;9.900;2023-06-04T06:12:34;101032.47;;;14.16;100.00
14232;BME280;7200;52.194;9.900;2023-06-04T06:14:59;101003.50;;;14.12;100.00
14232;BME280;7200;52.194;9.900;2023-06-04T06:17:24;100984.41;;;14.24;100.00
14232;BME280;7200;52.194;9.900;2023-06-04T06:19:51;100999.78;;;14.36;100.00
14232;BME280;7200;52.194;9.900;2023-06-04T06:22:17;100932.19;;;14.45;100.00
14232;BME280;7200;52.194;9.900;2023-06-04T06:24:42;100921.16;;;14.34;100.00
14232;BME280;7200;52.194;9.900;2023-06-04T06:27:07;100935.22;;;14.36;100.00
14232;BME280;7200;52.194;9.900;2023-06-04T06:29:33;101068.06;;;14.96;100.00
14232;BME280;7200;52.194;9.900;2023-06-04T06:31:58;101071.66;;;15.14;100.00
14232;BME280;7200;52.194;9.900;2023-06-04T06:34:24;101003.28;;;15.17;100.00
14232;BME280;7200;52.194;9.900;2023-06-04T06:36:49;101006.25;;;15.30;100.00
14232;BME280;7200;52.194;9.900;2023-06-04T06:39:15;100945.31;;;15.07;100.00
14232;BME280;7200;52.194;9.900;2023-06-04T06:41:41;101022.25;;;15.29;100.00
14232;BME280;7200;52.194;9.900;2023-06-04T06:44:06;101089.53;;;15.69;100.00
14232;BME280;7200;52.194;9.900;2023-06-04T06:46:32;101103.72;;;15.88;100.00
14232;BME280;7200;52.194;9.900;2023-06-04T06:48:57;101096.81;;;16.03;100.00
14232;BME280;7200;52.194;9.900;2023-06-04T06:51:22;101098.47;;;16.23;100.00
14232;BME280;7200;52.194;9.900;2023-06-04T06:53:49;101128.41;;;16.46;100.00
14232;BME280;7200;52.194;9.900;2023-06-04T06:56:15;100984.78;;;16.08;100.00
14232;BME280;7200;52.194;9.900;2023-06-04T06:58:40;101040.84;;;16.22;100.00
14232;BME280;7200;52.194;9.900;2023-06-04T07:01:06;101090.84;;;16.52;100.00
14232;BME280;7200;52.194;9.900;2023-06-04T07:03:31;101004.34;;;16.24;100.00
14232;BME280;7200;52.194;9.900;2023-06-04T07:05:57;101047.53;;;16.48;100.00
14232;BME280;7200;52.194;9.900;2023-06-04T07:08:22;101115.34;;;16.76;100.00
14232;BME280;7200;52.194;9.900;2023-06-04T07:10:47;101085.53;;;16.87;100.00
14232;BME280;7200;52.194;9.900;2023-06-04T07:13:13;100921.72;;;16.43;97.58
14232;BME280;7200;52.194;9.900;2023-06-04T07:15:38;101005.56;;;16.69;98.46
14232;BME280;7200;52.194;9.900;2023-06-04T07:18:03;101055.72;;;16.96;98.82
14232;BME280;7200;52.194;9.900;2023-06-04T07:20:29;101100.69;;;17.20;99.33
14232;BME280;7200;52.194;9.900;2023-06-04T07:22:56;101087.44;;;17.34;99.18
14232;BME280;7200;52.194;9.900;2023-06-04T07:25:21;101077.28;;;17.25;100.00
14232;BME280;7200;52.194;9.900;2023-06-04T07:27:48;101097.47;;;17.46;99.11
14232;BME280;7200;52.194;9.900;2023-06-04T07:30:16;101111.25;;;17.70;98.03
14232;BME280;7200;52.194;9.900;2023-06-04T07:32:41;101061.16;;;17.60;97.33
14232;BME280;7200;52.194;9.900;2023-06-04T07:35:07;101072.66;;;17.76;96.61
14232;BME280;7200;52.194;9.900;2023-06-04T07:37:32;100996.75;;;17.66;95.02
14232;BME280;7200;52.194;9.900;2023-06-04T07:39:57;101037.13;;;17.76;95.90
14232;BME280;7200;52.194;9.900;2023-06-04T07:42:23;101077.97;;;17.94;96.63
14232;BME280;7200;52.194;9.900;2023-06-04T07:44:48;101094.69;;;17.97;97.78
14232;BME280;7200;52.194;9.900;2023-06-04T07:47:13;101081.38;;;18.12;96.14
14232;BME280;7200;52.194;9.900;2023-06-04T07:49:39;101104.09;;;18.35;95.66
14232;BME280;7200;52.194;9.900;2023-06-04T07:52:04;101020.94;;;18.11;94.70
14232;BME280;7200;52.194;9.900;2023-06-04T07:54:29;101067.81;;;18.31;95.01
14232;BME280;7200;52.194;9.900;2023-06-04T07:56:54;100970.41;;;17.92;95.51
14232;BME280;7200;52.194;9.900;2023-06-04T07:59:22;101101.91;;;18.41;95.65
14232;BME280;7200;52.194;9.900;2023-06-04T08:01:49;101153.56;;;18.72;96.51
14232;BME280;7200;52.194;9.900;2023-06-04T08:04:14;101128.72;;;19.00;93.42
14232;BME280;7200;52.194;9.900;2023-06-04T08:06:39;101075.53;;;19.24;88.77
14232;BME280;7200;52.194;9.900;2023-06-04T08:09:04;100997.53;;;19.45;83.53
14232;BME280;7200;52.194;9.900;2023-06-04T08:11:30;100953.56;;;19.49;81.39
14232;BME280;7200;52.194;9.900;2023-06-04T08:13:55;100847.34;;;19.10;82.24
14232;BME280;7200;52.194;9.900;2023-06-04T08:16:20;101016.38;;;19.43;86.13
14232;BME280;7200;52.194;9.900;2023-06-04T08:18:45;100952.53;;;19.79;79.22
14232;BME280;7200;52.194;9.900;2023-06-04T08:21:11;100947.78;;;19.97;78.40
14232;BME280;7200;52.194;9.900;2023-06-04T08:23:37;100946.69;;;19.99;79.68
14232;BME280;7200;52.194;9.900;2023-06-04T08:26:02;100966.78;;;20.19;78.69
14232;BME280;7200;52.194;9.900;2023-06-04T08:28:27;100990.88;;;20.19;81.38
14232;BME280;7200;52.194;9.900;2023-06-04T08:30:52;100936.97;;;20.24;78.03
14232;BME280;7200;52.194;9.900;2023-06-04T08:33:18;100951.03;;;20.40;77.80
14232;BME280;7200;52.194;9.900;2023-06-04T08:35:43;100988.56;;;20.40;81.32
14232;BME280;7200;52.194;9.900;2023-06-04T08:38:08;100934.31;;;20.37;79.49
14232;BME280;7200;52.194;9.900;2023-06-04T08:40:34;100809.75;;;20.04;78.12
14232;BME280;7200;52.194;9.900;2023-06-04T08:43:00;100867.31;;;20.37;75.28
14232;BME280;7200;52.194;9.900;2023-06-04T08:45:26;100880.06;;;20.46;75.55
14232;BME280;7200;52.194;9.900;2023-06-04T08:47:52;100926.72;;;20.69;75.20
14232;BME280;7200;52.194;9.900;2023-06-04T08:50:20;100875.81;;;20.93;71.14
14232;BME280;7200;52.194;9.900;2023-06-04T08:52:47;100688.81;;;20.95;62.41
14232;BME280;7200;52.194;9.900;2023-06-04T08:55:13;100701.66;;;21.14;59.96
14232;BME280;7200;52.194;9.900;2023-06-04T08:57:39;100704.66;;;20.98;63.77
14232;BME280;7200;52.194;9.900;2023-06-04T09:00:06;100706.41;;;21.11;62.11
14232;BME280;7200;52.194;9.900;2023-06-04T09:02:37;100720.59;;;21.24;62.11
14232;BME280;7200;52.194;9.900;2023-06-04T09:05:04;100639.75;;;21.29;59.08
14232;BME280;7200;52.194;9.900;2023-06-04T09:07:30;100720.63;;;21.35;61.42
14232;BME280;7200;52.194;9.900;2023-06-04T09:09:58;100729.06;;;21.42;62.15
14232;BME280;7200;52.194;9.900;2023-06-04T09:12:24;100688.53;;;21.34;61.91
14232;BME280;7200;52.194;9.900;2023-06-04T09:14:50;100780.13;;;21.53;64.55
14232;BME280;7200;52.194;9.900;2023-06-04T09:17:24;100737.00;;;21.44;64.99
14232;BME280;7200;52.194;9.900;2023-06-04T09:19:50;100704.38;;;21.26;66.29
14232;BME280;7200;52.194;9.900;2023-06-04T09:22:18;100696.81;;;21.19;65.29
14232;BME280;7200;52.194;9.900;2023-06-04T09:24:45;100715.53;;;21.44;63.31
14232;BME280;7200;52.194;9.900;2023-06-04T09:27:19;100690.44;;;21.67;59.96
14232;BME280;7200;52.194;9.900;2023-06-04T09:29:56;100658.09;;;21.80;57.35
14232;BME280;7200;52.194;9.900;2023-06-04T09:32:29;100620.84;;;21.87;56.02
14232;BME280;7200;52.194;9.900;2023-06-04T09:35:18;100652.00;;;21.78;58.87
14232;BME280;7200;52.194;9.900;2023-06-04T09:37:42;100521.41;;;21.20;60.84
14232;BME280;7200;52.194;9.900;2023-06-04T09:40:08;100674.63;;;21.29;64.72
14232;BME280;7200;52.194;9.900;2023-06-04T09:42:48;100574.13;;;21.22;61.63
14232;BME280;7200;52.194;9.900;2023-06-04T09:45:33;100521.50;;;21.64;53.79
14232;BME280;7200;52.194;9.900;2023-06-04T09:48:01;100613.16;;;21.37;61.31
14232;BME280;7200;52.194;9.900;2023-06-04T09:50:31;100521.78;;;21.38;57.15
14232;BME280;7200;52.194;9.900;2023-06-04T09:52:58;100535.81;;;21.31;59.41
14232;BME280;7200;52.194;9.900;2023-06-04T09:55:24;100565.94;;;21.68;55.08
14232;BME280;7200;52.194;9.900;2023-06-04T09:57:51;100485.78;;;21.41;56.78
14232;BME280;7200;52.194;9.900;2023-06-04T10:00:17;100428.44;;;21.53;52.69
14232;BME280;7200;52.194;9.900;2023-06-04T10:02:47;100529.84;;;21.61;56.31
14232;BME280;7200;52.194;9.900;2023-06-04T10:05:14;100646.31;;;22.04;56.09
14232;BME280;7200;52.194;9.900;2023-06-04T10:07:44;100521.59;;;22.29;50.05
14232;BME280;7200;52.194;9.900;2023-06-04T10:10:19;100609.78;;;22.56;50.85
14232;BME280;7200;52.194;9.900;2023-06-04T10:12:50;100478.16;;;22.54;47.74
14232;BME280;7200;52.194;9.900;2023-06-04T10:15:17;100451.50;;;22.63;46.67
14232;BME280;7200;52.194;9.900;2023-06-04T10:17:42;100511.66;;;22.71;48.06
14232;BME280;7200;52.194;9.900;2023-06-04T10:20:08;100510.53;;;22.64;49.87
14232;BME280;7200;52.194;9.900;2023-06-04T10:22:34;100571.13;;;22.68;52.27
14232;BME280;7200;52.194;9.900;2023-06-04T10:25:00;100528.16;;;22.57;51.89
14232;BME280;7200;52.194;9.900;2023-06-04T10:27:26;100470.56;;;22.90;47.41
14232;BME280;7200;52.194;9.900;2023-06-04T10:29:52;100412.28;;;23.01;44.61
14232;BME280;7200;52.194;9.900;2023-06-04T10:32:18;100296.00;;;22.87;42.95
14232;BME280;7200;52.194;9.900;2023-06-04T10:34:46;100307.91;;;22.94;42.83
14232;BME280;7200;52.194;9.900;2023-06-04T10:37:21;100239.91;;;22.63;45.20
14232;BME280;7200;52.194;9.900;2023-06-04T10:39:54;100240.56;;;22.46;45.19
14232;BME280;7200;52.194;9.900;2023-06-04T10:42:22;100347.59;;;22.62;47.43
14232;BME280;7200;52.194;9.900;2023-06-04T10:44:49;100381.84;;;23.00;44.43
14232;BME280;7200;52.194;9.900;2023-06-04T10:47:25;100413.06;;;23.22;44.23
14232;BME280;7200;52.194;9.900;2023-06-04T10:49:51;100370.56;;;23.16;44.51
14232;BME280;7200;52.194;9.900;2023-06-04T10:52:18;100328.41;;;22.86;46.65
14232;BME280;7200;52.194;9.900;2023-06-04T10:54:44;100347.94;;;22.78;47.64
14232;BME280;7200;52.194;9.900;2023-06-04T10:57:14;100376.28;;;22.92;46.44
14232;BME280;7200;52.194;9.900;2023-06-04T10:59:40;100322.78;;;22.99;44.12
14232;BME280;7200;52.194;9.900;2023-06-04T11:02:07;100185.53;;;22.79;42.62
14232;BME280;7200;52.194;9.900;2023-06-04T11:04:32;100296.28;;;22.34;49.44
14232;BME280;7200;52.194;9.900;2023-06-04T11:07:05;100262.84;;;22.27;49.22
14232;BME280;7200;52.194;9.900;2023-06-04T11:09:35;100458.28;;;22.67;50.84
14232;BME280;7200;52.194;9.900;2023-06-04T11:12:01;100526.03;;;22.82;50.91
14232;BME280;7200;52.194;9.900;2023-06-04T11:14:27;100435.66;;;22.69;50.58
14232;BME280;7200;52.194;9.900;2023-06-04T11:16:52;100438.00;;;22.84;49.71
14232;BME280;7200;52.194;9.900;2023-06-04T11:19:18;100401.88;;;22.86;49.52
14232;BME280;7200;52.194;9.900;2023-06-04T11:21:44;100417.06;;;22.57;52.37
14232;BME280;7200;52.194;9.900;2023-06-04T11:24:12;100474.78;;;23.04;48.59
14232;BME280;7200;52.194;9.900;2023-06-04T11:26:37;100462.00;;;23.47;45.77
14232;BME280;7200;52.194;9.900;2023-06-04T11:29:07;100387.47;;;23.57;43.79
14232;BME280;7200;52.194;9.900;2023-06-04T11:31:45;100391.44;;;23.63;43.65
14232;BME280;7200;52.194;9.900;2023-06-04T11:34:25;100311.09;;;23.68;41.41
14232;BME280;7200;52.194;9.900;2023-06-04T11:36:51;100254.34;;;23.69;40.25
14232;BME280;7200;52.194;9.900;2023-06-04T11:39:18;100261.91;;;23.66;41.65
14232;BME280;7200;52.194;9.900;2023-06-04T11:41:44;100424.81;;;23.81;44.69
14232;BME280;7200;52.194;9.900;2023-06-04T11:44:12;100466.31;;;23.69;47.60
14232;BME280;7200;52.194;9.900;2023-06-04T11:46:41;100449.19;;;23.80;47.60
14232;BME280;7200;52.194;9.900;2023-06-04T11:49:11;100373.59;;;23.91;44.74
14232;BME280;7200;52.194;9.900;2023-06-04T11:51:38;100329.88;;;24.07;41.75
14232;BME280;7200;52.194;9.900;2023-06-04T11:54:04;100261.94;;;24.03;40.41
14232;BME280;7200;52.194;9.900;2023-06-04T11:56:29;100216.03;;;23.95;40.30
14232;BME280;7200;52.194;9.900;2023-06-04T11:58:55;100265.22;;;23.97;41.21
14232;BME280;7200;52.194;9.900;2023-06-04T12:01:20;100308.59;;;24.14;41.67
14232;BME280;7200;52.194;9.900;2023-06-04T12:03:46;100225.63;;;24.07;40.14
14232;BME280;7200;52.194;9.900;2023-06-04T12:06:14;100250.97;;;24.15;40.51
14232;BME280;7200;52.194;9.900;2023-06-04T12:08:50;100205.72;;;23.90;41.45
14232;BME280;7200;52.194;9.900;2023-06-04T12:11:32;100371.75;;;24.11;43.78
14232;BME280;7200;52.194;9.900;2023-06-04T12:14:04;100264.56;;;23.85;44.51
14232;BME280;7200;52.194;9.900;2023-06-04T12:16:31;100287.22;;;24.02;43.44
14232;BME280;7200;52.194;9.900;2023-06-04T12:19:06;100305.06;;;24.03;44.00
14232;BME280;7200;52.194;9.900;2023-06-04T12:21:32;100316.50;;;24.25;42.45
14232;BME280;7200;52.194;9.900;2023-06-04T12:24:08;100239.84;;;24.00;42.99
14232;BME280;7200;52.194;9.900;2023-06-04T12:26:34;100230.53;;;24.22;40.87
14232;BME280;7200;52.194;9.900;2023-06-04T12:29:08;100301.53;;;24.40;41.07
14232;BME280;7200;52.194;9.900;2023-06-04T12:31:35;100190.19;;;24.30;40.34
14232;BME280;7200;52.194;9.900;2023-06-04T12:34:01;100252.63;;;24.25;42.23
14232;BME280;7200;52.194;9.900;2023-06-04T12:36:27;100361.56;;;24.42;43.54
14232;BME280;7200;52.194;9.900;2023-06-04T12:38:58;100248.28;;;24.42;40.86
14232;BME280;7200;52.194;9.900;2023-06-04T12:41:24;100225.44;;;24.19;42.39
14232;BME280;7200;52.194;9.900;2023-06-04T12:43:50;100092.81;;;24.15;39.50
14232;BME280;7200;52.194;9.900;2023-06-04T12:46:16;100152.06;;;24.25;39.66
14232;BME280;7200;52.194;9.900;2023-06-04T12:48:41;100164.16;;;24.39;38.81
14232;BME280;7200;52.194;9.900;2023-06-04T12:51:08;100081.59;;;24.38;38.02
14232;BME280;7200;52.194;9.900;2023-06-04T12:53:35;100038.06;;;24.33;37.51
14232;BME280;7200;52.194;9.900;2023-06-04T12:56:00;100086.50;;;24.42;37.70
14232;BME280;7200;52.194;9.900;2023-06-04T12:58:25;99995.88;;;24.05;38.90
14232;BME280;7200;52.194;9.900;2023-06-04T13:00:51;100120.88;;;24.22;40.17